Terminal Aerodrome Forecast
Issued by NWS

Home | Current Version | Previous Version | Text Only | Print | Product List | Glossary On
Versions: 1 2 3 4 5 6 7 8 9 10 11 12 13 14 15 16 17 18 19 20 21 22 23 24 25 26 27 28
316
FTUS46 KLOX 132103 AAA
TAFLAX
TAF AMD
KLAX 132103Z 1321/1424 26010KT 4SM BR VCFG SCT002
     FM140200 26010KT 6SM HZ VCFG SCT003
     FM140400 36006KT P6SM SKC
     FM140900 04006KT P6SM SKC
     FM141600 VRB03KT P6SM SKC
     FM142100 26010KT P6SM SKC=

USA.gov is the U.S. government's official web portal to all federal, state and local government web resources and services.